Terminal Aerodrome Forecast
Issued by NWS

Home | Current Version | Previous Version | Text Only | Print | Product List | Glossary On
Versions: 1 2 3 4 5 6 7 8 9 10 11 12 13 14 15 16
187
FTUS42 TJSJ 052359 CCA
TAFJSJ
TAF COR
TJSJ 052359Z 0600/0624 VRB05KT P6SM -RA FEW025 SCT035 SCT060
     FM060200 00000KT P6SM FEW030 FEW060
     FM061400 16011KT P6SM FEW030
     FM062300 09007KT P6SM FEW030 SCT050=

USA.gov is the U.S. government's official web portal to all federal, state and local government web resources and services.